Time;durP1;ratioP1;P1;durP2;ratioP2;P2;SDS_P1;SDS_P2;PMS_P1;PMS_P2;Temp;Humidity;BMP_temperature;BMP_pressure;BME280_temperature;BME280_humidity;BME280_pressure;Samples;Min_cycle;Max_cycle;Signal;HPM_P1;HPM_P2
2022/12/04 00:01:04;;;;;;;;;;;;;;;38.44;nan;101908.00;5073456;28;19920;-57
2022/12/04 00:03:30;;;;;;;;;;;;;;;38.61;nan;101909.75;5075521;28;19928;-56
2022/12/04 00:06:04;;;;;;;;;;;;;;;38.75;nan;101911.56;5074068;28;20336;-58
2022/12/04 00:08:30;;;;;;;;;;;;;;;38.49;nan;101901.81;5073920;28;19934;-58
2022/12/04 00:10:57;;;;;;;;;;;;;;;38.55;nan;101910.66;5073773;28;20405;-58
2022/12/04 00:13:23;;;;;;;;;;;;;;;38.41;nan;101914.50;5087135;28;19963;-58
2022/12/04 00:15:49;;;;;;;;;;;;;;;38.48;nan;101910.78;5072714;28;19977;-57
2022/12/04 00:18:15;;;;;;;;;;;;;;;38.29;nan;101910.25;5072622;28;19995;-57
2022/12/04 00:20:42;;;;;;;;;;;;;;;38.17;nan;101921.34;5072023;28;19924;-58
2022/12/04 00:23:08;;;;;;;;;;;;;;;38.25;nan;101935.06;5072276;28;19921;-59
2022/12/04 00:25:34;;;;;;;;;;;;;;;38.23;nan;101919.66;5073065;28;20405;-57
2022/12/04 00:28:00;;;;;;;;;;;;;;;38.23;nan;101922.47;5076884;28;19921;-57
2022/12/04 00:30:27;;;;;;;;;;;;;;;38.19;nan;101916.88;5073887;28;19969;-58
2022/12/04 00:32:53;;;;;;;;;;;;;;;38.07;nan;101917.44;5075321;28;19924;-58
2022/12/04 00:35:19;;;;;;;;;;;;;;;38.16;nan;101911.22;5076854;28;19924;-58
2022/12/04 00:37:45;;;;;;;;;;;;;;;37.87;nan;101911.56;5091984;28;19921;-58
2022/12/04 00:40:12;;;;;;;;;;;;;;;37.87;nan;101913.59;5081205;28;19969;-59
2022/12/04 00:42:39;;;;;;;;;;;;;;;37.83;nan;101907.19;5075350;28;19920;-59
2022/12/04 00:45:06;;;;;;;;;;;;;;;37.92;nan;101905.44;5091588;28;19916;-59
2022/12/04 00:47:32;;;;;;;;;;;;;;;37.36;nan;101919.06;5077316;28;19920;-59
2022/12/04 00:49:58;;;;;;;;;;;;;;;37.53;nan;101924.97;5087855;28;19916;-59
2022/12/04 00:52:27;;;;;;;;;;;;;;;37.72;nan;101932.84;5084043;28;19924;-59
2022/12/04 00:54:53;;;;;;;;;;;;;;;37.78;nan;101922.66;5077903;28;19928;-59
2022/12/04 00:57:19;;;;;;;;;;;;;;;37.63;nan;101918.34;5071258;28;20016;-59
2022/12/04 00:59:45;;;;;;;;;;;;;;;37.55;nan;101922.50;5074135;28;19920;-59
2022/12/04 01:02:12;;;;;;;;;;;;;;;37.51;nan;101923.31;5074240;28;19920;-59
2022/12/04 01:04:38;;;;;;;;;;;;;;;37.50;nan;101929.41;5074388;28;19924;-59
2022/12/04 01:07:04;;;;;;;;;;;;;;;37.35;nan;101937.28;5074870;28;20383;-59
2022/12/04 01:09:31;;;;;;;;;;;;;;;37.44;nan;101937.59;5076140;28;19916;-59
2022/12/04 01:11:57;;;;;;;;;;;;;;;37.47;nan;101938.78;5075882;28;19920;-59
2022/12/04 01:14:23;;;;;;;;;;;;;;;37.36;nan;101938.09;5075861;28;20274;-59
2022/12/04 01:16:49;;;;;;;;;;;;;;;37.39;nan;101948.59;5075599;28;19924;-59
2022/12/04 01:19:15;;;;;;;;;;;;;;;37.25;nan;101949.50;5075561;28;19920;-59
2022/12/04 01:21:42;;;;;;;;;;;;;;;37.29;nan;101952.34;5059075;28;19969;-59
2022/12/04 01:24:08;;;;;;;;;;;;;;;37.28;nan;101953.56;5075610;28;19923;-59
2022/12/04 01:26:34;;;;;;;;;;;;;;;37.41;nan;101957.50;5066909;28;20435;-59
2022/12/04 01:29:00;;;;;;;;;;;;;;;37.21;nan;101960.09;5075587;28;20428;-59
2022/12/04 01:31:27;;;;;;;;;;;;;;;37.21;nan;101955.22;5075348;28;19920;-59
2022/12/04 01:33:53;;;;;;;;;;;;;;;37.28;nan;101962.06;5075517;28;19916;-59
2022/12/04 01:36:21;;;;;;;;;;;;;;;37.43;nan;101963.53;5075371;28;19931;-59
2022/12/04 01:38:47;;;;;;;;;;;;;;;37.24;nan;101955.59;5074279;28;19924;-59
2022/12/04 01:41:14;;;;;;;;;;;;;;;37.32;nan;101957.97;5075333;28;19920;-59
2022/12/04 01:43:40;;;;;;;;;;;;;;;37.40;nan;101962.34;5075173;28;19916;-59
2022/12/04 01:46:07;;;;;;;;;;;;;;;37.36;nan;101961.59;5075226;28;19974;-59
2022/12/04 01:48:36;;;;;;;;;;;;;;;37.43;nan;101964.34;5074922;28;19970;-59
2022/12/04 01:51:23;;;;;;;;;;;;;;;37.45;nan;101961.09;5075133;28;19924;-59
2022/12/04 01:53:52;;;;;;;;;;;;;;;37.40;nan;101961.56;5059652;28;19924;-58
2022/12/04 01:56:21;;;;;;;;;;;;;;;37.24;nan;101964.91;5070531;28;19977;-59
2022/12/04 01:58:50;;;;;;;;;;;;;;;37.27;nan;101961.25;5074940;28;19924;-59
2022/12/04 02:01:16;;;;;;;;;;;;;;;37.27;nan;101964.09;5074952;28;19971;-60
2022/12/04 02:03:43;;;;;;;;;;;;;;;37.05;nan;101977.63;5073752;28;19958;-59
2022/12/04 02:06:09;;;;;;;;;;;;;;;36.96;nan;101970.81;5074957;28;19982;-59
2022/12/04 02:08:36;;;;;;;;;;;;;;;36.66;nan;101971.41;5074778;28;19921;-59
2022/12/04 02:11:08;;;;;;;;;;;;;;;36.73;nan;101980.66;5074772;28;19916;-59
2022/12/04 02:13:44;;;;;;;;;;;;;;;36.83;nan;101974.16;5074654;28;20336;-59
2022/12/04 02:16:23;;;;;;;;;;;;;;;36.68;nan;101966.16;5074713;28;19974;-59
2022/12/04 02:18:59;;;;;;;;;;;;;;;36.77;nan;101950.28;5074536;28;19948;-59
2022/12/04 02:21:35;;;;;;;;;;;;;;;36.50;nan;101958.56;5074483;28;20378;-59
2022/12/04 02:24:19;;;;;;;;;;;;;;;36.46;nan;101960.63;5074573;28;20007;-59
2022/12/04 02:26:53;;;;;;;;;;;;;;;36.52;nan;101969.47;5069958;28;19920;-59
2022/12/04 02:29:22;;;;;;;;;;;;;;;36.28;nan;101966.34;5074493;28;19924;-59
2022/12/04 02:32:14;;;;;;;;;;;;;;;36.34;nan;101974.44;5074348;28;19947;-59
2022/12/04 02:34:44;;;;;;;;;;;;;;;36.31;nan;101971.22;5071362;28;19968;-60
2022/12/04 02:37:14;;;;;;;;;;;;;;;36.44;nan;101963.03;5074205;28;19916;-59
2022/12/04 02:39:46;;;;;;;;;;;;;;;36.39;nan;101974.81;5074055;28;20019;-59
2022/12/04 02:42:19;;;;;;;;;;;;;;;36.55;nan;101980.78;5074194;28;19927;-59
2022/12/04 02:44:45;;;;;;;;;;;;;;;36.47;nan;101978.41;5073980;28;20014;-59
2022/12/04 02:47:14;;;;;;;;;;;;;;;36.35;nan;101964.72;5074045;28;20403;-59
2022/12/04 02:49:45;;;;;;;;;;;;;;;36.53;nan;101966.22;5073877;28;19920;-59
2022/12/04 02:52:14;;;;;;;;;;;;;;;36.41;nan;101985.72;5073835;28;19943;-59
2022/12/04 02:54:42;;;;;;;;;;;;;;;36.36;nan;101988.97;5073493;28;20377;-59
2022/12/04 02:57:12;;;;;;;;;;;;;;;36.18;nan;102003.19;5069386;28;19920;-59
2022/12/04 02:59:42;;;;;;;;;;;;;;;36.12;nan;101988.66;5074195;28;20431;-59
2022/12/04 03:02:19;;;;;;;;;;;;;;;36.07;nan;101983.41;5073750;28;19966;-59
2022/12/04 03:04:46;;;;;;;;;;;;;;;36.01;nan;101996.38;5073548;28;20011;-59
2022/12/04 03:07:14;;;;;;;;;;;;;;;35.99;nan;102001.63;5073661;28;19916;-59
2022/12/04 03:09:40;;;;;;;;;;;;;;;36.03;nan;101996.78;5073468;28;19943;-59
2022/12/04 03:12:13;;;;;;;;;;;;;;;36.03;nan;101996.78;5073211;28;19985;-59
2022/12/04 03:14:43;;;;;;;;;;;;;;;33.89;nan;101999.22;5073560;28;20413;-59
2022/12/04 03:17:11;;;;;;;;;;;;;;;34.76;nan;101999.19;5073672;28;19927;-59
2022/12/04 03:19:47;;;;;;;;;;;;;;;35.47;nan;101992.03;5073362;28;19928;-59
2022/12/04 03:22:17;;;;;;;;;;;;;;;35.55;nan;102000.09;5073261;28;19932;-59
2022/12/04 03:24:47;;;;;;;;;;;;;;;35.11;nan;102006.94;5069102;28;20410;-59
2022/12/04 03:27:23;;;;;;;;;;;;;;;35.47;nan;102006.97;5065683;28;20049;-59
2022/12/04 03:29:58;;;;;;;;;;;;;;;35.55;nan;102002.09;5057939;28;20009;-59
2022/12/04 03:32:27;;;;;;;;;;;;;;;35.65;nan;102001.28;5073132;28;19975;-59
2022/12/04 03:34:56;;;;;;;;;;;;;;;35.08;nan;102009.78;5072907;28;20440;-58
2022/12/04 03:37:49;;;;;;;;;;;;;;;32.61;nan;102026.22;5072956;28;20427;-58
2022/12/04 03:40:35;;;;;;;;;;;;;;;34.67;nan;102012.91;5041893;28;19935;-58
2022/12/04 03:43:06;;;;;;;;;;;;;;;34.10;nan;102017.47;5062431;28;19988;-58
2022/12/04 03:45:35;;;;;;;;;;;;;;;34.48;nan;102014.06;5072834;28;20378;-59
2022/12/04 03:48:07;;;;;;;;;;;;;;;35.16;nan;102021.88;5072966;28;19960;-58
2022/12/04 03:50:38;;;;;;;;;;;;;;;35.16;nan;102022.69;5072962;28;19920;-58
2022/12/04 03:53:24;;;;;;;;;;;;;;;33.43;nan;102026.28;5072918;28;19921;-58
2022/12/04 03:55:57;;;;;;;;;;;;;;;32.81;nan;102042.97;5075023;28;19993;-59
2022/12/04 03:58:28;;;;;;;;;;;;;;;32.38;nan;102045.25;5083737;28;19920;-58
2022/12/04 04:00:55;;;;;;;;;;;;;;;32.16;nan;102042.13;5077345;28;19947;-59
2022/12/04 04:03:24;;;;;;;;;;;;;;;33.47;nan;102036.38;5073658;28;19926;-59
2022/12/04 04:06:02;;;;;;;;;;;;;;;34.40;nan;102039.84;5088251;28;19964;-59
2022/12/04 04:08:32;;;;;;;;;;;;;;;34.16;nan;102056.22;5083008;28;19975;-58
2022/12/04 04:11:09;;;;;;;;;;;;;;;32.91;nan;102056.34;5088747;28;19920;-58
2022/12/04 04:24:46;;;;;;;;;;;;;;;35.65;nan;102044.53;5072492;28;19932;-60
2022/12/04 04:27:13;;;;;;;;;;;;;;;35.75;nan;102042.09;5085079;28;19967;-60
2022/12/04 04:29:40;;;;;;;;;;;;;;;35.68;nan;102023.91;5076081;28;20014;-60
2022/12/04 04:32:12;;;;;;;;;;;;;;;35.71;nan;102020.25;5085578;28;19916;-60
2022/12/04 04:34:38;;;;;;;;;;;;;;;35.89;nan;102037.22;5084042;28;19920;-60
2022/12/04 04:37:11;;;;;;;;;;;;;;;35.86;nan;102028.75;5077577;28;19923;-58
2022/12/04 04:39:49;;;;;;;;;;;;;;;35.66;nan;102037.66;5088930;28;19927;-59
2022/12/04 04:42:20;;;;;;;;;;;;;;;35.64;nan;102040.09;5080798;28;19963;-59
2022/12/04 04:44:52;;;;;;;;;;;;;;;35.73;nan;102034.03;5079751;28;19966;-60
2022/12/04 04:47:24;;;;;;;;;;;;;;;35.66;nan;102037.66;5089085;28;19966;-58
2022/12/04 04:49:51;;;;;;;;;;;;;;;35.55;nan;102036.88;5077227;28;19927;-58
2022/12/04 04:52:19;;;;;;;;;;;;;;;35.00;nan;102033.56;5083721;28;19916;-58
2022/12/04 04:54:46;;;;;;;;;;;;;;;35.06;nan;102035.63;5084185;28;19923;-58
2022/12/04 04:57:12;;;;;;;;;;;;;;;35.30;nan;102033.19;5088698;28;19920;-59
2022/12/04 04:59:38;;;;;;;;;;;;;;;35.55;nan;102031.22;5075701;28;19927;-58
2022/12/04 05:02:05;;;;;;;;;;;;;;;35.48;nan;102022.72;5084404;28;19970;-58
2022/12/04 05:04:31;;;;;;;;;;;;;;;34.27;nan;102030.06;5082632;28;19920;-58
2022/12/04 05:06:57;;;;;;;;;;;;;;;34.83;nan;102029.47;5078137;28;19916;-60
2022/12/04 05:09:24;;;;;;;;;;;;;;;35.16;nan;102025.50;5121802;28;19920;-60
2022/12/04 05:11:50;;;;;;;;;;;;;;;35.36;nan;102023.13;5076869;28;19916;-58
2022/12/04 05:14:16;;;;;;;;;;;;;;;35.42;nan;102016.69;5085975;28;20015;-58
2022/12/04 05:16:42;;;;;;;;;;;;;;;35.55;nan;102014.25;5085032;28;20286;-58
2022/12/04 05:21:53;;;;;;;;;;;;;;;35.19;nan;102016.25;5090727;28;19920;-58
2022/12/04 05:24:19;;;;;;;;;;;;;;;35.35;nan;102015.84;5084103;28;19990;-59
2022/12/04 05:26:45;;;;;;;;;;;;;;;35.46;nan;102011.00;5087767;28;20275;-59
2022/12/04 05:29:11;;;;;;;;;;;;;;;35.56;nan;102001.72;5079555;28;19956;-59
2022/12/04 05:31:38;;;;;;;;;;;;;;;35.56;nan;101998.91;5091962;28;19920;-59
2022/12/04 05:34:04;;;;;;;;;;;;;;;35.47;nan;101995.66;5082410;28;20401;-59
2022/12/04 05:36:30;;;;;;;;;;;;;;;35.30;nan;101996.44;5085054;28;20401;-59
2022/12/04 05:38:56;;;;;;;;;;;;;;;35.30;nan;102000.09;5089260;28;19928;-58
2022/12/04 05:41:23;;;;;;;;;;;;;;;35.18;nan;101994.81;5078648;28;19924;-60
2022/12/04 05:43:49;;;;;;;;;;;;;;;35.06;nan;102004.53;5090930;28;20401;-60
2022/12/04 05:46:15;;;;;;;;;;;;;;;35.17;nan;102003.72;5083465;28;19931;-59
2022/12/04 05:48:41;;;;;;;;;;;;;;;35.34;nan;102002.91;5083046;28;20332;-59
2022/12/04 05:51:08;;;;;;;;;;;;;;;35.41;nan;102008.59;5090734;28;19946;-58
2022/12/04 05:53:35;;;;;;;;;;;;;;;35.28;nan;102010.19;5078488;28;20019;-59
2022/12/04 05:56:02;;;;;;;;;;;;;;;35.40;nan;102001.34;5090608;28;20006;-59
2022/12/04 05:58:28;;;;;;;;;;;;;;;35.42;nan;102008.19;5085268;28;19920;-59
2022/12/04 06:00:54;;;;;;;;;;;;;;;35.39;nan;102011.03;5088688;28;19924;-59
2022/12/04 06:03:21;;;;;;;;;;;;;;;35.43;nan;102006.16;5078559;28;19917;-59
2022/12/04 06:05:47;;;;;;;;;;;;;;;35.46;nan;102013.84;5090803;28;20022;-60
2022/12/04 06:08:13;;;;;;;;;;;;;;;35.38;nan;102018.69;5082916;28;19939;-60
2022/12/04 06:10:40;;;;;;;;;;;;;;;35.52;nan;102017.88;5083211;28;19943;-60
2022/12/04 06:13:06;;;;;;;;;;;;;;;35.59;nan;102020.69;5090022;28;19916;-60
2022/12/04 06:15:37;;;;;;;;;;;;;;;35.12;nan;102019.06;5078140;28;20023;-60
2022/12/04 06:18:03;;;;;;;;;;;;;;;34.97;nan;102029.53;5088343;28;19982;-60
2022/12/04 06:20:29;;;;;;;;;;;;;;;35.15;nan;102023.91;5084966;28;19916;-60
2022/12/04 06:22:55;;;;;;;;;;;;;;;35.23;nan;102013.41;5080663;28;19998;-60
2022/12/04 06:25:22;;;;;;;;;;;;;;;34.41;nan;102021.69;5087246;28;19917;-60
2022/12/04 06:27:48;;;;;;;;;;;;;;;34.50;nan;102013.66;5090660;28;19924;-59
2022/12/04 06:30:14;;;;;;;;;;;;;;;34.94;nan;102007.72;5082657;28;20422;-59
2022/12/04 06:32:40;;;;;;;;;;;;;;;35.07;nan;102006.13;5082396;28;19974;-59
2022/12/04 06:35:07;;;;;;;;;;;;;;;35.29;nan;101994.84;5089904;28;19916;-59
2022/12/04 06:37:33;;;;;;;;;;;;;;;35.32;nan;102003.31;5077512;28;19920;-59
2022/12/04 06:39:59;;;;;;;;;;;;;;;35.32;nan;101994.81;5088348;28;20011;-58
2022/12/04 06:42:26;;;;;;;;;;;;;;;35.28;nan;101996.84;5083669;28;19931;-59
2022/12/04 06:44:52;;;;;;;;;;;;;;;35.36;nan;101994.84;5080586;28;19936;-59
2022/12/04 06:47:18;;;;;;;;;;;;;;;35.32;nan;101988.38;5090750;28;19920;-58
2022/12/04 06:49:48;;;;;;;;;;;;;;;35.37;nan;101991.66;5078062;28;20299;-59
2022/12/04 06:52:14;;;;;;;;;;;;;;;35.31;nan;101990.38;5085947;28;19920;-58
2022/12/04 06:54:40;;;;;;;;;;;;;;;35.42;nan;101979.91;5085410;28;20057;-58
2022/12/04 06:57:07;;;;;;;;;;;;;;;35.28;nan;101976.25;5089431;28;20416;-59
2022/12/04 06:59:33;;;;;;;;;;;;;;;35.29;nan;101966.56;5077245;28;20455;-58
2022/12/04 07:01:59;;;;;;;;;;;;;;;35.17;nan;101966.97;5087740;28;19916;-59
2022/12/04 07:04:25;;;;;;;;;;;;;;;35.16;nan;101976.66;5083555;28;19920;-59
2022/12/04 07:06:52;;;;;;;;;;;;;;;35.23;nan;101969.00;5080394;28;20009;-61
2022/12/04 07:09:18;;;;;;;;;;;;;;;35.24;nan;101970.63;5090198;28;20374;-59
2022/12/04 07:11:45;;;;;;;;;;;;;;;35.24;nan;101975.47;5076533;28;19920;-59
2022/12/04 07:14:12;;;;;;;;;;;;;;;35.25;nan;101985.56;5084845;28;19916;-59
2022/12/04 07:16:38;;;;;;;;;;;;;;;34.91;nan;101971.81;5078665;28;19921;-59
2022/12/04 07:19:05;;;;;;;;;;;;;;;34.60;nan;101987.47;5088728;28;19916;-59
2022/12/04 07:21:33;;;;;;;;;;;;;;;35.01;nan;101984.31;5076730;28;19920;-59
2022/12/04 07:24:00;;;;;;;;;;;;;;;35.02;nan;101978.28;5087896;28;19917;-60
2022/12/04 07:26:28;;;;;;;;;;;;;;;34.93;nan;101983.50;5082697;28;19920;-60
2022/12/04 07:28:54;;;;;;;;;;;;;;;34.88;nan;101975.44;5079544;28;19920;-60
2022/12/04 07:31:22;;;;;;;;;;;;;;;34.90;nan;101977.88;5089677;28;19965;-60
2022/12/04 07:33:48;;;;;;;;;;;;;;;34.87;nan;101979.47;5077739;28;19930;-60
2022/12/04 07:36:15;;;;;;;;;;;;;;;34.93;nan;101986.34;5084387;28;19925;-60
2022/12/04 07:38:42;;;;;;;;;;;;;;;35.04;nan;101980.72;5084853;28;19923;-60
2022/12/04 07:41:10;;;;;;;;;;;;;;;34.94;nan;101973.81;5077285;28;19928;-60
2022/12/04 07:43:36;;;;;;;;;;;;;;;34.78;nan;101981.84;5088325;28;20399;-59
2022/12/04 07:46:04;;;;;;;;;;;;;;;34.91;nan;101977.47;5079578;28;20023;-59
2022/12/04 07:48:30;;;;;;;;;;;;;;;34.90;nan;101978.69;5082840;28;19916;-59
2022/12/04 07:51:10;;;;;;;;;;;;;;;34.93;nan;101988.38;5087028;28;20477;-59
2022/12/04 07:53:37;;;;;;;;;;;;;;;34.96;nan;101982.72;5076356;28;19998;-58
2022/12/04 07:56:04;;;;;;;;;;;;;;;35.00;nan;101971.41;5088515;28;19920;-58
2022/12/04 07:58:30;;;;;;;;;;;;;;;34.89;nan;101971.41;5082678;28;20275;-59
2022/12/04 08:01:11;;;;;;;;;;;;;;;34.83;nan;101964.50;5086958;28;20301;-59
2022/12/04 08:03:38;;;;;;;;;;;;;;;34.85;nan;101970.59;5076229;28;19927;-59
2022/12/04 08:06:05;;;;;;;;;;;;;;;34.88;nan;101977.47;5086198;28;19916;-59
2022/12/04 08:08:32;;;;;;;;;;;;;;;34.84;nan;101974.63;5083389;28;19924;-59
2022/12/04 08:10:58;;;;;;;;;;;;;;;34.79;nan;101967.31;5078569;28;19917;-58
2022/12/04 08:13:24;;;;;;;;;;;;;;;34.64;nan;101967.69;5089317;28;19923;-59
2022/12/04 08:15:51;;;;;;;;;;;;;;;34.28;nan;101969.56;5077720;28;19970;-59
2022/12/04 08:18:17;;;;;;;;;;;;;;;34.14;nan;101976.00;5084007;28;20629;-59
2022/12/04 08:20:43;;;;;;;;;;;;;;;34.35;nan;101970.47;5084727;28;20271;-59
2022/12/04 08:23:09;;;;;;;;;;;;;;;34.40;nan;101972.88;5076639;28;19959;-59
2022/12/04 08:25:39;;;;;;;;;;;;;;;34.37;nan;101959.56;5083131;28;19924;-60
2022/12/04 08:28:06;;;;;;;;;;;;;;;34.29;nan;101960.72;5084957;28;19928;-60
2022/12/04 08:30:33;;;;;;;;;;;;;;;34.32;nan;101948.66;5071855;28;19989;-60
2022/12/04 08:32:59;;;;;;;;;;;;;;;34.35;nan;101936.59;5071604;28;19920;-60
2022/12/04 08:35:25;;;;;;;;;;;;;;;34.30;nan;101948.25;5069231;28;19929;-61
2022/12/04 08:37:51;;;;;;;;;;;;;;;34.23;nan;101946.19;5064867;28;19967;-61
2022/12/04 08:40:18;;;;;;;;;;;;;;;34.23;nan;101939.72;5071154;28;19924;-62
2022/12/04 08:42:44;;;;;;;;;;;;;;;34.35;nan;101941.41;5069074;28;19920;-61
2022/12/04 08:45:10;;;;;;;;;;;;;;;34.54;nan;101947.53;5074061;28;19916;-61
2022/12/04 08:47:36;;;;;;;;;;;;;;;34.50;nan;101938.25;5076422;28;20022;-61
2022/12/04 08:50:03;;;;;;;;;;;;;;;34.56;nan;101935.00;5082121;28;19916;-61
2022/12/04 08:52:30;;;;;;;;;;;;;;;34.58;nan;101939.06;5086733;28;19925;-61
2022/12/04 08:54:56;;;;;;;;;;;;;;;34.54;nan;101933.41;5078408;28;19924;-61
2022/12/04 08:57:23;;;;;;;;;;;;;;;34.47;nan;101939.03;5078140;28;19989;-61
2022/12/04 08:59:49;;;;;;;;;;;;;;;34.03;nan;101936.44;5078969;28;19927;-61
2022/12/04 09:02:15;;;;;;;;;;;;;;;33.76;nan;101938.72;5076907;28;19967;-61
2022/12/04 09:04:41;;;;;;;;;;;;;;;34.01;nan;101943.69;5078086;28;19917;-61
2022/12/04 09:07:08;;;;;;;;;;;;;;;34.02;nan;101939.66;5077500;28;20019;-61
2022/12/04 09:09:35;;;;;;;;;;;;;;;34.00;nan;101937.25;5079955;28;19952;-60
2022/12/04 09:12:01;;;;;;;;;;;;;;;34.10;nan;101930.81;5078112;28;20023;-60
2022/12/04 09:14:27;;;;;;;;;;;;;;;34.09;nan;101928.38;5077849;28;19939;-60
2022/12/04 09:16:53;;;;;;;;;;;;;;;33.97;nan;101931.59;5077510;28;19920;-60
2022/12/04 09:19:20;;;;;;;;;;;;;;;33.91;nan;101919.84;5078512;28;20375;-60
2022/12/04 09:21:46;;;;;;;;;;;;;;;33.97;nan;101914.66;5078894;28;20362;-60
2022/12/04 09:24:12;;;;;;;;;;;;;;;33.77;nan;101911.31;5077859;28;19917;-60
2022/12/04 09:26:39;;;;;;;;;;;;;;;33.64;nan;101902.38;5077287;28;19921;-60
2022/12/04 09:29:05;;;;;;;;;;;;;;;33.51;nan;101901.09;5077995;28;19924;-60
2022/12/04 09:31:32;;;;;;;;;;;;;;;33.84;nan;101915.00;5079189;28;19921;-60
2022/12/04 09:33:59;;;;;;;;;;;;;;;34.05;nan;101913.47;5077561;28;19916;-60
2022/12/04 09:36:26;;;;;;;;;;;;;;;34.15;nan;101927.63;5077972;28;19921;-60
2022/12/04 09:38:53;;;;;;;;;;;;;;;34.11;nan;101909.03;5076155;28;19924;-61
2022/12/04 09:41:28;;;;;;;;;;;;;;;34.07;nan;101909.03;5077443;28;19927;-61
2022/12/04 09:44:02;;;;;;;;;;;;;;;34.06;nan;101904.59;5077168;28;19920;-61
2022/12/04 09:47:00;;;;;;;;;;;;;;;34.14;nan;101897.78;5077340;28;20006;-61
2022/12/04 09:49:37;;;;;;;;;;;;;;;34.28;nan;101897.00;5055959;28;19921;-61
2022/12/04 09:52:08;;;;;;;;;;;;;;;33.15;nan;101897.22;5068682;28;20378;-61
2022/12/04 09:54:39;;;;;;;;;;;;;;;32.63;nan;101899.16;5077146;28;19921;-61
2022/12/04 09:57:14;;;;;;;;;;;;;;;32.85;nan;101898.16;5070571;28;20026;-61
2022/12/04 09:59:41;;;;;;;;;;;;;;;33.09;nan;101885.50;5070442;28;19920;-61
2022/12/04 10:02:25;;;;;;;;;;;;;;;32.80;nan;101892.06;5075282;28;19917;-61
2022/12/04 10:04:52;;;;;;;;;;;;;;;33.21;nan;101892.81;5072587;28;19920;-61
2022/12/04 10:07:28;;;;;;;;;;;;;;;31.80;nan;101907.84;5069038;28;19964;-62
2022/12/04 10:09:55;;;;;;;;;;;;;;;32.30;nan;101886.75;5074713;28;19917;-61
2022/12/04 10:12:27;;;;;;;;;;;;;;;32.76;nan;101895.66;5074717;28;19959;-61
2022/12/04 10:15:12;;;;;;;;;;;;;;;32.97;nan;101885.81;5074702;28;19928;-61
2022/12/04 10:17:41;;;;;;;;;;;;;;;33.28;nan;101888.06;5074488;28;20029;-62
2022/12/04 10:20:07;;;;;;;;;;;;;;;33.31;nan;101894.91;5074687;28;19921;-62
2022/12/04 10:22:36;;;;;;;;;;;;;;;33.33;nan;101893.34;5074694;28;19928;-61
2022/12/04 10:25:17;;;;;;;;;;;;;;;33.08;nan;101885.91;5052571;28;20406;-60
2022/12/04 10:27:48;;;;;;;;;;;;;;;32.70;nan;101893.59;5071151;28;20397;-59
2022/12/04 10:30:23;;;;;;;;;;;;;;;32.97;nan;101892.25;5074449;28;19973;-60
2022/12/04 10:32:55;;;;;;;;;;;;;;;32.77;nan;101882.41;5074160;28;20449;-60
2022/12/04 10:35:23;;;;;;;;;;;;;;;32.59;nan;101881.41;5074264;28;20303;-60
2022/12/04 10:37:55;;;;;;;;;;;;;;;32.51;nan;101876.94;5068091;28;19916;-60
2022/12/04 10:40:25;;;;;;;;;;;;;;;32.92;nan;101877.72;5073826;28;19928;-60
2022/12/04 10:42:55;;;;;;;;;;;;;;;33.38;nan;101880.06;5073988;28;19921;-60
2022/12/04 10:45:22;;;;;;;;;;;;;;;33.37;nan;101876.44;5074024;28;19916;-60
2022/12/04 10:47:50;;;;;;;;;;;;;;;32.88;nan;101888.97;5063782;28;19916;-59
2022/12/04 10:50:18;;;;;;;;;;;;;;;33.00;nan;101896.28;5073894;28;20019;-59
2022/12/04 10:52:44;;;;;;;;;;;;;;;33.09;nan;101885.50;5073714;28;19916;-59
2022/12/04 10:55:10;;;;;;;;;;;;;;;32.89;nan;101890.59;5069763;28;20268;-59
2022/12/04 10:57:41;;;;;;;;;;;;;;;33.00;nan;101896.28;5073100;28;19928;-59
2022/12/04 11:00:26;;;;;;;;;;;;;;;32.71;nan;101884.78;5073435;28;19974;-60
2022/12/04 11:02:53;;;;;;;;;;;;;;;33.00;nan;101883.00;5071406;28;20018;-59
2022/12/04 11:05:25;;;;;;;;;;;;;;;32.37;nan;101886.03;5073984;28;19923;-60
2022/12/04 11:07:53;;;;;;;;;;;;;;;31.92;nan;101870.22;5063953;28;20409;-59
2022/12/04 11:10:22;;;;;;;;;;;;;;;32.44;nan;101872.84;5067096;28;19942;-59
2022/12/04 11:12:53;;;;;;;;;;;;;;;31.43;nan;101871.97;5055625;28;19920;-60
2022/12/04 11:15:19;;;;;;;;;;;;;;;31.70;nan;101869.09;5068874;28;19927;-60
2022/12/04 11:17:49;;;;;;;;;;;;;;;31.50;nan;101886.13;5058264;28;19947;-60
2022/12/04 11:20:19;;;;;;;;;;;;;;;32.22;nan;101884.22;5048219;28;20011;-60
2022/12/04 11:22:52;;;;;;;;;;;;;;;31.72;nan;101886.41;5065854;28;20367;-60
2022/12/04 11:25:21;;;;;;;;;;;;;;;32.52;nan;101876.53;5057887;28;20371;-60
2022/12/04 11:27:49;;;;;;;;;;;;;;;32.84;nan;101873.22;5073219;28;19924;-60
2022/12/04 11:30:24;;;;;;;;;;;;;;;32.66;nan;101871.03;5071878;28;19982;-60
2022/12/04 11:32:51;;;;;;;;;;;;;;;32.61;nan;101865.75;5071601;28;19920;-61
2022/12/04 11:35:22;;;;;;;;;;;;;;;32.12;nan;101874.47;5072988;28;19956;-61
2022/12/04 11:37:57;;;;;;;;;;;;;;;32.18;nan;101872.94;5072370;28;20444;-61
2022/12/04 11:40:24;;;;;;;;;;;;;;;32.55;nan;101867.31;5072883;28;19960;-60
2022/12/04 11:43:17;;;;;;;;;;;;;;;32.76;nan;101870.31;5072178;28;20704;-60
2022/12/04 11:45:54;;;;;;;;;;;;;;;32.35;nan;101874.38;5054019;28;19928;-60
2022/12/04 11:48:21;;;;;;;;;;;;;;;32.23;nan;101863.34;5072961;28;19920;-60
2022/12/04 11:50:56;;;;;;;;;;;;;;;31.26;nan;101864.09;5072319;28;20271;-60
2022/12/04 11:53:25;;;;;;;;;;;;;;;31.88;nan;101864.56;5072257;28;19921;-61
2022/12/04 11:56:07;;;;;;;;;;;;;;;31.96;nan;101871.06;5073975;28;20412;-61
2022/12/04 11:58:52;;;;;;;;;;;;;;;32.41;nan;101870.00;5082058;28;19920;-61
2022/12/04 12:01:19;;;;;;;;;;;;;;;32.22;nan;101879.41;5089356;28;20362;-61
2022/12/04 12:04:04;;;;;;;;;;;;;;;32.73;nan;101871.09;5076955;28;20057;-61
2022/12/04 12:06:34;;;;;;;;;;;;;;;32.60;nan;101868.97;5082124;28;19920;-61
2022/12/04 12:09:01;;;;;;;;;;;;;;;32.69;nan;101875.09;5086141;28;19966;-61
2022/12/04 12:11:50;;;;;;;;;;;;;;;32.01;nan;101868.72;5075894;28;19916;-61
2022/12/04 12:14:34;;;;;;;;;;;;;;;31.92;nan;101882.28;5084335;28;19947;-61
2022/12/04 12:17:22;;;;;;;;;;;;;;;32.69;nan;101880.72;5087640;28;20371;-61
2022/12/04 12:20:02;;;;;;;;;;;;;;;32.03;nan;101880.41;5077517;28;19920;-61
2022/12/04 12:22:53;;;;;;;;;;;;;;;32.38;nan;101879.22;5072480;28;19974;-61
2022/12/04 12:25:41;;;;;;;;;;;;;;;32.43;nan;101873.22;5090084;28;20406;-61
2022/12/04 12:28:16;;;;;;;;;;;;;;;32.80;nan;101869.53;5089160;28;19920;-61
2022/12/04 12:30:58;;;;;;;;;;;;;;;32.86;nan;101868.84;5087614;28;20386;-61
2022/12/04 12:33:35;;;;;;;;;;;;;;;32.90;nan;101871.69;5079983;28;20024;-61
2022/12/04 12:36:07;;;;;;;;;;;;;;;33.04;nan;101863.34;5090289;28;19920;-61
2022/12/04 12:38:40;;;;;;;;;;;;;;;33.11;nan;101860.56;5086915;28;20381;-61
2022/12/04 12:41:14;;;;;;;;;;;;;;;33.18;nan;101874.69;5096700;28;19924;-61
2022/12/04 12:43:43;;;;;;;;;;;;;;;33.18;nan;101880.31;5063568;28;19920;-60
2022/12/04 12:46:14;;;;;;;;;;;;;;;33.20;nan;101869.47;5089135;28;19981;-61
2022/12/04 12:48:46;;;;;;;;;;;;;;;33.20;nan;101877.09;5088166;28;19924;-61
2022/12/04 12:51:31;;;;;;;;;;;;;;;33.32;nan;101885.25;5080125;28;20286;-61
2022/12/04 12:54:01;;;;;;;;;;;;;;;32.72;nan;101880.75;5082143;28;20397;-60
2022/12/04 12:56:35;;;;;;;;;;;;;;;32.40;nan;101874.00;5091890;28;19924;-60
2022/12/04 12:59:03;;;;;;;;;;;;;;;32.62;nan;101875.00;5081694;28;19920;-61
2022/12/04 13:01:41;;;;;;;;;;;;;;;32.07;nan;101874.81;5092762;28;19923;-61
2022/12/04 13:04:08;;;;;;;;;;;;;;;32.34;nan;101870.75;5083453;28;20405;-61
2022/12/04 13:06:39;;;;;;;;;;;;;;;32.49;nan;101863.22;5085247;28;19916;-60
2022/12/04 13:09:11;;;;;;;;;;;;;;;32.57;nan;101881.81;5091263;28;19920;-61
2022/12/04 13:11:38;;;;;;;;;;;;;;;32.25;nan;101883.44;5079318;28;19924;-60
2022/12/04 13:14:04;;;;;;;;;;;;;;;32.63;nan;101888.69;5088657;28;20011;-61
2022/12/04 13:16:33;;;;;;;;;;;;;;;32.62;nan;101889.91;5086392;28;20400;-61
2022/12/04 13:19:20;;;;;;;;;;;;;;;32.68;nan;101879.91;5081335;28;19938;-60
2022/12/04 13:21:51;;;;;;;;;;;;;;;32.60;nan;101883.84;5080007;28;19924;-60
2022/12/04 13:24:32;;;;;;;;;;;;;;;32.59;nan;101881.41;5086868;28;20013;-59